sensor_id;sensor_type;location;lat;lon;timestamp;pressure;altitude;pressure_sealevel;temperature;humidity
68075;BME280;54864;52.002;5.468;2023-03-01T00:00:36;103068.81;;;0.56;63.57
68075;BME280;54864;52.002;5.468;2023-03-01T00:01:38;103079.88;;;0.50;63.73
68075;BME280;54864;52.002;5.468;2023-03-01T00:02:39;103076.25;;;0.45;64.33
68075;BME280;54864;52.002;5.468;2023-03-01T00:03:42;103062.38;;;0.45;64.28
68075;BME280;54864;52.002;5.468;2023-03-01T00:04:43;103065.28;;;0.54;64.05
68075;BME280;54864;52.002;5.468;2023-03-01T00:05:45;103070.13;;;0.43;63.75
68075;BME280;54864;52.002;5.468;2023-03-01T00:06:46;103068.41;;;0.44;64.35
68075;BME280;54864;52.002;5.468;2023-03-01T00:07:48;103072.03;;;0.49;64.24
68075;BME280;54864;52.002;5.468;2023-03-01T00:08:52;103072.97;;;0.51;63.95
68075;BME280;54864;52.002;5.468;2023-03-01T00:09:54;103071.94;;;0.46;64.05
68075;BME280;54864;52.002;5.468;2023-03-01T00:11:02;103073.69;;;0.47;63.86
68075;BME280;54864;52.002;5.468;2023-03-01T00:12:05;103072.78;;;0.45;64.27
68075;BME280;54864;52.002;5.468;2023-03-01T00:13:07;103068.25;;;0.39;64.45
68075;BME280;54864;52.002;5.468;2023-03-01T00:14:08;103076.44;;;0.51;64.00
68075;BME280;54864;52.002;5.468;2023-03-01T00:15:10;103065.22;;;0.52;63.80
68075;BME280;54864;52.002;5.468;2023-03-01T00:16:14;103060.13;;;0.55;63.72
68075;BME280;54864;52.002;5.468;2023-03-01T00:17:16;103068.75;;;0.54;63.71
68075;BME280;54864;52.002;5.468;2023-03-01T00:18:17;103069.34;;;0.46;64.07
68075;BME280;54864;52.002;5.468;2023-03-01T00:19:20;103073.75;;;0.48;63.87
68075;BME280;54864;52.002;5.468;2023-03-01T00:20:22;103070.56;;;0.57;63.61
68075;BME280;54864;52.002;5.468;2023-03-01T00:21:24;103069.63;;;0.55;63.68
68075;BME280;54864;52.002;5.468;2023-03-01T00:22:26;103069.53;;;0.52;63.91
68075;BME280;54864;52.002;5.468;2023-03-01T00:23:28;103070.38;;;0.51;63.62
68075;BME280;54864;52.002;5.468;2023-03-01T00:24:29;103069.53;;;0.52;63.88
68075;BME280;54864;52.002;5.468;2023-03-01T00:25:31;103067.81;;;0.52;63.72
68075;BME280;54864;52.002;5.468;2023-03-01T00:26:32;103071.19;;;0.50;64.24
68075;BME280;54864;52.002;5.468;2023-03-01T00:27:33;103063.66;;;0.57;63.88
68075;BME280;54864;52.002;5.468;2023-03-01T00:28:34;103065.47;;;0.60;63.62
68075;BME280;54864;52.002;5.468;2023-03-01T00:29:36;103064.50;;;0.56;64.11
68075;BME280;54864;52.002;5.468;2023-03-01T00:30:37;103061.81;;;0.53;63.84
68075;BME280;54864;52.002;5.468;2023-03-01T00:31:39;103064.25;;;0.49;64.23
68075;BME280;54864;52.002;5.468;2023-03-01T00:32:40;103065.88;;;0.45;63.92
68075;BME280;54864;52.002;5.468;2023-03-01T00:33:42;103063.19;;;0.42;64.66
68075;BME280;54864;52.002;5.468;2023-03-01T00:34:47;103058.19;;;0.48;64.38
68075;BME280;54864;52.002;5.468;2023-03-01T00:35:54;103057.09;;;0.42;64.08
68075;BME280;54864;52.002;5.468;2023-03-01T00:36:55;103053.09;;;0.51;64.11
68075;BME280;54864;52.002;5.468;2023-03-01T00:38:06;103054.72;;;0.48;63.72
68075;BME280;54864;52.002;5.468;2023-03-01T00:39:10;103053.00;;;0.48;63.92
68075;BME280;54864;52.002;5.468;2023-03-01T00:40:13;103046.13;;;0.23;63.69
68075;BME280;54864;52.002;5.468;2023-03-01T00:41:18;103052.78;;;0.42;63.82
68075;BME280;54864;52.002;5.468;2023-03-01T00:42:20;103058.13;;;0.47;63.88
68075;BME280;54864;52.002;5.468;2023-03-01T00:43:22;103053.63;;;0.41;64.63
68075;BME280;54864;52.002;5.468;2023-03-01T00:44:23;103055.28;;;0.39;64.41
68075;BME280;54864;52.002;5.468;2023-03-01T00:45:26;103053.91;;;0.50;63.74
68075;BME280;54864;52.002;5.468;2023-03-01T00:46:27;103057.09;;;0.42;63.65
68075;BME280;54864;52.002;5.468;2023-03-01T00:47:30;103057.25;;;0.46;63.94
68075;BME280;54864;52.002;5.468;2023-03-01T00:48:34;103056.56;;;0.52;63.74
68075;BME280;54864;52.002;5.468;2023-03-01T00:49:36;103048.81;;;0.53;63.43
68075;BME280;54864;52.002;5.468;2023-03-01T00:50:38;103053.28;;;0.57;63.34
68075;BME280;54864;52.002;5.468;2023-03-01T00:51:40;103051.38;;;0.52;63.62
68075;BME280;54864;52.002;5.468;2023-03-01T00:52:41;103058.09;;;0.45;63.63
68075;BME280;54864;52.002;5.468;2023-03-01T00:53:44;103046.28;;;0.55;63.40
68075;BME280;54864;52.002;5.468;2023-03-01T00:54:45;103062.78;;;0.57;63.44
68075;BME280;54864;52.002;5.468;2023-03-01T00:55:46;103053.28;;;0.57;63.23
68075;BME280;54864;52.002;5.468;2023-03-01T00:56:47;103050.53;;;0.53;63.09
68075;BME280;54864;52.002;5.468;2023-03-01T00:57:49;103056.81;;;0.59;63.06
68075;BME280;54864;52.002;5.468;2023-03-01T00:58:50;103055.13;;;0.61;63.45
68075;BME280;54864;52.002;5.468;2023-03-01T00:59:52;103048.41;;;0.67;63.71
68075;BME280;54864;52.002;5.468;2023-03-01T01:00:53;103051.53;;;0.56;63.31
68075;BME280;54864;52.002;5.468;2023-03-01T01:01:54;103046.91;;;0.48;63.49
68075;BME280;54864;52.002;5.468;2023-03-01T01:02:55;103047.25;;;0.58;63.67
68075;BME280;54864;52.002;5.468;2023-03-01T01:03:59;103045.22;;;0.48;63.49
68075;BME280;54864;52.002;5.468;2023-03-01T01:05:04;103042.06;;;0.58;63.23
68075;BME280;54864;52.002;5.468;2023-03-01T01:06:13;103038.88;;;0.66;63.31
68075;BME280;54864;52.002;5.468;2023-03-01T01:07:14;103036.50;;;0.73;62.84
68075;BME280;54864;52.002;5.468;2023-03-01T01:08:16;103041.66;;;0.72;63.43
68075;BME280;54864;52.002;5.468;2023-03-01T01:09:17;103030.19;;;0.65;63.12
68075;BME280;54864;52.002;5.468;2023-03-01T01:10:19;103033.53;;;0.62;63.36
68075;BME280;54864;52.002;5.468;2023-03-01T01:11:20;103035.38;;;0.65;63.05
68075;BME280;54864;52.002;5.468;2023-03-01T01:12:22;103036.50;;;0.73;63.04
68075;BME280;54864;52.002;5.468;2023-03-01T01:13:23;103041.97;;;0.55;63.30
68075;BME280;54864;52.002;5.468;2023-03-01T01:14:25;103040.44;;;0.62;63.24
68075;BME280;54864;52.002;5.468;2023-03-01T01:15:26;103029.34;;;0.66;63.12
68075;BME280;54864;52.002;5.468;2023-03-01T01:16:28;103029.53;;;0.72;63.15
68075;BME280;54864;52.002;5.468;2023-03-01T01:17:29;103026.94;;;0.72;62.63
68075;BME280;54864;52.002;5.468;2023-03-01T01:18:31;103031.16;;;0.69;62.93
68075;BME280;54864;52.002;5.468;2023-03-01T01:19:32;103029.28;;;0.64;63.22
68075;BME280;54864;52.002;5.468;2023-03-01T01:20:35;103029.28;;;0.64;63.23
68075;BME280;54864;52.002;5.468;2023-03-01T01:21:38;103028.22;;;0.58;63.12
68075;BME280;54864;52.002;5.468;2023-03-01T01:22:40;103028.56;;;0.69;63.21
68075;BME280;54864;52.002;5.468;2023-03-01T01:23:43;103025.81;;;0.64;62.87
68075;BME280;54864;52.002;5.468;2023-03-01T01:24:45;103025.72;;;0.61;63.25
68075;BME280;54864;52.002;5.468;2023-03-01T01:25:46;103023.75;;;0.54;63.35
68075;BME280;54864;52.002;5.468;2023-03-01T01:26:47;103017.09;;;0.62;63.01
68075;BME280;54864;52.002;5.468;2023-03-01T01:27:48;103020.56;;;0.62;62.88
68075;BME280;54864;52.002;5.468;2023-03-01T01:28:50;103015.88;;;0.51;63.54
68075;BME280;54864;52.002;5.468;2023-03-01T01:29:52;103014.16;;;0.51;63.72
68075;BME280;54864;52.002;5.468;2023-03-01T01:30:54;103023.56;;;0.48;63.61
68075;BME280;54864;52.002;5.468;2023-03-01T01:31:55;103014.91;;;0.47;63.47
68075;BME280;54864;52.002;5.468;2023-03-01T01:32:56;103012.44;;;0.52;63.54
68075;BME280;54864;52.002;5.468;2023-03-01T01:33:58;103015.63;;;0.43;64.07
68075;BME280;54864;52.002;5.468;2023-03-01T01:35:00;103013.94;;;0.44;63.68
68075;BME280;54864;52.002;5.468;2023-03-01T01:36:01;103015.69;;;0.45;63.93
68075;BME280;54864;52.002;5.468;2023-03-01T01:37:05;103012.22;;;0.44;63.41
68075;BME280;54864;52.002;5.468;2023-03-01T01:38:08;103013.00;;;0.42;63.84
68075;BME280;54864;52.002;5.468;2023-03-01T01:39:10;103010.53;;;0.46;63.82
68075;BME280;54864;52.002;5.468;2023-03-01T01:40:13;103008.59;;;0.39;63.41
68075;BME280;54864;52.002;5.468;2023-03-01T01:41:16;103007.81;;;0.42;63.86
68075;BME280;54864;52.002;5.468;2023-03-01T01:42:18;103011.03;;;0.35;63.79
68075;BME280;54864;52.002;5.468;2023-03-01T01:43:22;103007.75;;;0.40;63.94
68075;BME280;54864;52.002;5.468;2023-03-01T01:44:25;103013.03;;;0.43;63.93
68075;BME280;54864;52.002;5.468;2023-03-01T01:45:32;103002.72;;;0.45;63.46
68075;BME280;54864;52.002;5.468;2023-03-01T01:46:35;103013.72;;;0.38;63.56
68075;BME280;54864;52.002;5.468;2023-03-01T01:47:39;103005.50;;;0.24;64.10
68075;BME280;54864;52.002;5.468;2023-03-01T01:48:42;103008.25;;;0.28;64.22
68075;BME280;54864;52.002;5.468;2023-03-01T01:49:47;103005.91;;;0.36;63.73
68075;BME280;54864;52.002;5.468;2023-03-01T01:50:54;103006.78;;;0.37;63.89
68075;BME280;54864;52.002;5.468;2023-03-01T01:52:01;103006.78;;;0.37;63.81
68075;BME280;54864;52.002;5.468;2023-03-01T01:53:07;103007.66;;;0.37;63.89
68075;BME280;54864;52.002;5.468;2023-03-01T01:54:16;103007.66;;;0.37;64.13
68075;BME280;54864;52.002;5.468;2023-03-01T01:55:20;103009.13;;;0.29;63.89
68075;BME280;54864;52.002;5.468;2023-03-01T01:56:24;103004.03;;;0.32;64.31
68075;BME280;54864;52.002;5.468;2023-03-01T01:57:29;103004.03;;;0.32;63.60
68075;BME280;54864;52.002;5.468;2023-03-01T01:58:33;102992.63;;;0.27;63.96
68075;BME280;54864;52.002;5.468;2023-03-01T01:59:34;103001.44;;;0.32;64.27
68075;BME280;54864;52.002;5.468;2023-03-01T02:00:37;102997.88;;;0.28;63.92
68075;BME280;54864;52.002;5.468;2023-03-01T02:01:39;103000.56;;;0.31;63.88
68075;BME280;54864;52.002;5.468;2023-03-01T02:02:41;103000.81;;;0.39;63.40
68075;BME280;54864;52.002;5.468;2023-03-01T02:03:44;102999.00;;;0.37;63.28
68075;BME280;54864;52.002;5.468;2023-03-01T02:04:49;102992.84;;;0.33;63.75
68075;BME280;54864;52.002;5.468;2023-03-01T02:05:57;102999.59;;;0.28;63.86
68075;BME280;54864;52.002;5.468;2023-03-01T02:07:02;102990.09;;;0.28;63.67
68075;BME280;54864;52.002;5.468;2023-03-01T02:08:08;102983.97;;;0.26;64.02
68075;BME280;54864;52.002;5.468;2023-03-01T02:09:14;102996.31;;;0.34;63.73
68075;BME280;54864;52.002;5.468;2023-03-01T02:10:16;102991.81;;;0.28;63.77
68075;BME280;54864;52.002;5.468;2023-03-01T02:11:19;102989.94;;;0.24;64.34
68075;BME280;54864;52.002;5.468;2023-03-01T02:12:23;102990.88;;;0.26;63.79
68075;BME280;54864;52.002;5.468;2023-03-01T02:13:25;102991.47;;;0.17;64.13
68075;BME280;54864;52.002;5.468;2023-03-01T02:14:26;102993.47;;;0.26;64.11
68075;BME280;54864;52.002;5.468;2023-03-01T02:15:31;102991.72;;;0.25;64.17
68075;BME280;54864;52.002;5.468;2023-03-01T02:16:32;102995.97;;;0.23;64.58
68075;BME280;54864;52.002;5.468;2023-03-01T02:17:35;102995.00;;;0.19;64.40
68075;BME280;54864;52.002;5.468;2023-03-01T02:18:37;102996.41;;;0.10;64.50
68075;BME280;54864;52.002;5.468;2023-03-01T02:19:47;103000.03;;;0.15;64.70
68075;BME280;54864;52.002;5.468;2023-03-01T02:21:03;102993.13;;;0.15;64.02
68075;BME280;54864;52.002;5.468;2023-03-01T02:22:13;102987.22;;;0.19;64.18
68075;BME280;54864;52.002;5.468;2023-03-01T02:23:17;102990.59;;;0.17;64.38
68075;BME280;54864;52.002;5.468;2023-03-01T02:24:26;102988.53;;;0.07;64.70
68075;BME280;54864;52.002;5.468;2023-03-01T02:25:36;102994.69;;;0.10;65.04
68075;BME280;54864;52.002;5.468;2023-03-01T02:26:46;102984.53;;;0.16;65.14
68075;BME280;54864;52.002;5.468;2023-03-01T02:27:52;102988.81;;;0.16;65.15
68075;BME280;54864;52.002;5.468;2023-03-01T02:28:58;102989.84;;;0.21;64.70
68075;BME280;54864;52.002;5.468;2023-03-01T02:29:59;102990.63;;;0.18;64.87
68075;BME280;54864;52.002;5.468;2023-03-01T02:31:03;102986.56;;;0.26;64.28
68075;BME280;54864;52.002;5.468;2023-03-01T02:32:23;102986.53;;;0.25;64.73
68075;BME280;54864;52.002;5.468;2023-03-01T02:33:25;102983.75;;;0.19;64.83
68075;BME280;54864;52.002;5.468;2023-03-01T02:34:27;102983.25;;;0.30;64.68
68075;BME280;54864;52.002;5.468;2023-03-01T02:35:34;102982.25;;;0.27;64.58
68075;BME280;54864;52.002;5.468;2023-03-01T02:36:39;102989.03;;;0.22;64.92
68075;BME280;54864;52.002;5.468;2023-03-01T02:37:41;102978.06;;;0.30;64.67
68075;BME280;54864;52.002;5.468;2023-03-01T02:38:44;102983.34;;;0.34;64.43
68075;BME280;54864;52.002;5.468;2023-03-01T02:39:48;102970.31;;;0.32;64.45
68075;BME280;54864;52.002;5.468;2023-03-01T02:40:52;102983.38;;;0.35;64.66
68075;BME280;54864;52.002;5.468;2023-03-01T02:41:54;102979.13;;;0.37;64.07
68075;BME280;54864;52.002;5.468;2023-03-01T02:42:58;102976.38;;;0.32;64.60
68075;BME280;54864;52.002;5.468;2023-03-01T02:44:00;102978.28;;;0.38;65.02
68075;BME280;54864;52.002;5.468;2023-03-01T02:45:10;102979.31;;;0.43;64.56
68075;BME280;54864;52.002;5.468;2023-03-01T02:46:15;102982.88;;;0.47;64.13
68075;BME280;54864;52.002;5.468;2023-03-01T02:47:17;102980.06;;;0.39;64.31
68075;BME280;54864;52.002;5.468;2023-03-01T02:48:19;102974.31;;;0.49;64.20
68075;BME280;54864;52.002;5.468;2023-03-01T02:49:25;102980.19;;;0.44;63.91
68075;BME280;54864;52.002;5.468;2023-03-01T02:50:45;102978.34;;;0.40;64.71
68075;BME280;54864;52.002;5.468;2023-03-01T02:52:27;102982.56;;;0.36;65.31
68075;BME280;54864;52.002;5.468;2023-03-01T02:53:35;102980.28;;;0.47;64.50
68075;BME280;54864;52.002;5.468;2023-03-01T02:54:41;102979.22;;;0.40;64.82
68075;BME280;54864;52.002;5.468;2023-03-01T02:55:45;102973.06;;;0.37;65.07
68075;BME280;54864;52.002;5.468;2023-03-01T02:56:47;102980.94;;;0.40;65.26
68075;BME280;54864;52.002;5.468;2023-03-01T02:57:49;102967.72;;;0.32;64.88
68075;BME280;54864;52.002;5.468;2023-03-01T02:58:51;102979.28;;;0.42;64.53
68075;BME280;54864;52.002;5.468;2023-03-01T02:59:56;102971.34;;;0.37;64.52
68075;BME280;54864;52.002;5.468;2023-03-01T03:00:58;102973.09;;;0.38;65.03
68075;BME280;54864;52.002;5.468;2023-03-01T03:02:01;102969.69;;;0.39;64.88
68075;BME280;54864;52.002;5.468;2023-03-01T03:03:01;102977.09;;;0.27;64.95
68075;BME280;54864;52.002;5.468;2023-03-01T03:04:04;102972.72;;;0.26;64.92
68075;BME280;54864;52.002;5.468;2023-03-01T03:05:08;102970.47;;;0.10;65.53
68075;BME280;54864;52.002;5.468;2023-03-01T03:06:11;102967.22;;;-0.10;65.71
68075;BME280;54864;52.002;5.468;2023-03-01T03:07:12;102969.44;;;0.05;66.33
68075;BME280;54864;52.002;5.468;2023-03-01T03:08:14;102965.53;;;0.17;65.60
68075;BME280;54864;52.002;5.468;2023-03-01T03:09:24;102969.97;;;0.21;65.56
68075;BME280;54864;52.002;5.468;2023-03-01T03:10:28;102969.28;;;0.27;65.56
68075;BME280;54864;52.002;5.468;2023-03-01T03:11:29;102971.19;;;0.32;65.14
68075;BME280;54864;52.002;5.468;2023-03-01T03:12:32;102972.72;;;0.26;65.38
68075;BME280;54864;52.002;5.468;2023-03-01T03:13:33;102960.69;;;0.28;64.92
68075;BME280;54864;52.002;5.468;2023-03-01T03:14:35;102970.47;;;0.37;64.80
68075;BME280;54864;52.002;5.468;2023-03-01T03:15:37;102965.88;;;0.28;65.37
68075;BME280;54864;52.002;5.468;2023-03-01T03:16:40;102964.78;;;0.21;65.42
68075;BME280;54864;52.002;5.468;2023-03-01T03:17:42;102966.16;;;0.10;65.87
68075;BME280;54864;52.002;5.468;2023-03-01T03:18:46;102961.38;;;0.22;65.73
68075;BME280;54864;52.002;5.468;2023-03-01T03:19:47;102965.13;;;0.32;65.25
68075;BME280;54864;52.002;5.468;2023-03-01T03:20:49;102950.59;;;0.37;64.82
68075;BME280;54864;52.002;5.468;2023-03-01T03:21:53;102956.78;;;0.42;64.77
68075;BME280;54864;52.002;5.468;2023-03-01T03:22:55;102955.19;;;0.46;64.70
68075;BME280;54864;52.002;5.468;2023-03-01T03:23:57;102954.63;;;0.27;65.36
68075;BME280;54864;52.002;5.468;2023-03-01T03:24:59;102957.22;;;0.27;65.47
68075;BME280;54864;52.002;5.468;2023-03-01T03:25:59;102949.72;;;0.37;65.14
68075;BME280;54864;52.002;5.468;2023-03-01T03:27:01;102946.78;;;0.26;65.70
68075;BME280;54864;52.002;5.468;2023-03-01T03:28:02;102947.03;;;0.34;65.08
68075;BME280;54864;52.002;5.468;2023-03-01T03:29:09;102952.13;;;0.30;65.26
68075;BME280;54864;52.002;5.468;2023-03-01T03:30:12;102958.03;;;0.26;65.56
68075;BME280;54864;52.002;5.468;2023-03-01T03:31:15;102951.22;;;0.30;65.44
68075;BME280;54864;52.002;5.468;2023-03-01T03:32:16;102953.59;;;0.22;65.29
68075;BME280;54864;52.002;5.468;2023-03-01T03:33:18;102958.97;;;0.28;65.24
68075;BME280;54864;52.002;5.468;2023-03-01T03:34:19;102953.59;;;0.22;65.18
68075;BME280;54864;52.002;5.468;2023-03-01T03:35:22;102954.38;;;0.20;65.93
68075;BME280;54864;52.002;5.468;2023-03-01T03:36:25;102956.28;;;0.25;65.82
68075;BME280;54864;52.002;5.468;2023-03-01T03:37:26;102946.66;;;0.21;65.52
68075;BME280;54864;52.002;5.468;2023-03-01T03:38:46;102949.88;;;0.14;65.71
68075;BME280;54864;52.002;5.468;2023-03-01T03:39:49;102952.72;;;0.22;65.13
68075;BME280;54864;52.002;5.468;2023-03-01T03:40:51;102948.41;;;0.22;65.19
68075;BME280;54864;52.002;5.468;2023-03-01T03:41:53;102956.31;;;0.27;65.45
68075;BME280;54864;52.002;5.468;2023-03-01T03:42:54;102951.84;;;0.21;65.01
68075;BME280;54864;52.002;5.468;2023-03-01T03:43:56;102949.16;;;0.18;65.34
68075;BME280;54864;52.002;5.468;2023-03-01T03:45:00;102956.22;;;0.24;64.78
68075;BME280;54864;52.002;5.468;2023-03-01T03:46:03;102947.22;;;0.13;65.39
68075;BME280;54864;52.002;5.468;2023-03-01T03:47:07;102954.91;;;0.10;65.70
68075;BME280;54864;52.002;5.468;2023-03-01T03:48:12;102951.19;;;0.02;65.47
68075;BME280;54864;52.002;5.468;2023-03-01T03:49:12;102953.06;;;0.06;65.51
68075;BME280;54864;52.002;5.468;2023-03-01T03:50:19;102954.88;;;0.08;65.54
68075;BME280;54864;52.002;5.468;2023-03-01T03:51:20;102951.19;;;0.02;65.81
68075;BME280;54864;52.002;5.468;2023-03-01T03:52:23;102948.72;;;0.05;65.63
68075;BME280;54864;52.002;5.468;2023-03-01T03:53:25;102950.03;;;-0.07;65.57
68075;BME280;54864;52.002;5.468;2023-03-01T03:54:26;102946.38;;;-0.13;66.16
68075;BME280;54864;52.002;5.468;2023-03-01T03:55:27;102942.16;;;-0.10;65.73
68075;BME280;54864;52.002;5.468;2023-03-01T03:56:30;102944.66;;;-0.13;66.27
68075;BME280;54864;52.002;5.468;2023-03-01T03:57:32;102939.47;;;-0.13;66.34
68075;BME280;54864;52.002;5.468;2023-03-01T03:58:33;102934.81;;;-0.23;66.07
68075;BME280;54864;52.002;5.468;2023-03-01T03:59:35;102941.66;;;-0.25;65.60
68075;BME280;54864;52.002;5.468;2023-03-01T04:00:38;102942.84;;;-0.15;65.95
68075;BME280;54864;52.002;5.468;2023-03-01T04:01:40;102939.28;;;-0.19;66.05
68075;BME280;54864;52.002;5.468;2023-03-01T04:02:44;102943.03;;;-0.09;65.94
68075;BME280;54864;52.002;5.468;2023-03-01T04:03:45;102936.63;;;-0.20;66.61
68075;BME280;54864;52.002;5.468;2023-03-01T04:04:47;102933.31;;;-0.16;66.14
68075;BME280;54864;52.002;5.468;2023-03-01T04:05:53;102941.13;;;-0.15;65.74
68075;BME280;54864;52.002;5.468;2023-03-01T04:06:54;102933.94;;;-0.23;66.33
68075;BME280;54864;52.002;5.468;2023-03-01T04:07:55;102937.66;;;-0.15;66.13
68075;BME280;54864;52.002;5.468;2023-03-01T04:09:02;102933.00;;;-0.25;66.18
68075;BME280;54864;52.002;5.468;2023-03-01T04:10:06;102933.50;;;-0.10;66.12
68075;BME280;54864;52.002;5.468;2023-03-01T04:11:08;102935.03;;;-0.17;66.11
68075;BME280;54864;52.002;5.468;2023-03-01T04:12:28;102933.22;;;-0.19;66.21
68075;BME280;54864;52.002;5.468;2023-03-01T04:13:29;102937.75;;;-0.12;66.23
68075;BME280;54864;52.002;5.468;2023-03-01T04:14:31;102941.34;;;-0.09;65.03
68075;BME280;54864;52.002;5.468;2023-03-01T04:15:32;102935.06;;;-0.15;65.46
68075;BME280;54864;52.002;5.468;2023-03-01T04:16:34;102941.03;;;-0.18;65.47
68075;BME280;54864;52.002;5.468;2023-03-01T04:17:35;102941.28;;;-0.10;65.51
68075;BME280;54864;52.002;5.468;2023-03-01T04:18:39;102940.09;;;-0.20;65.34
68075;BME280;54864;52.002;5.468;2023-03-01T04:19:39;102941.19;;;-0.13;65.38
68075;BME280;54864;52.002;5.468;2023-03-01T04:20:45;102932.44;;;-0.17;65.23
68075;BME280;54864;52.002;5.468;2023-03-01T04:21:46;102933.16;;;-0.21;65.07
68075;BME280;54864;52.002;5.468;2023-03-01T04:22:48;102942.66;;;-0.21;65.60
68075;BME280;54864;52.002;5.468;2023-03-01T04:23:49;102936.38;;;-0.28;65.93
68075;BME280;54864;52.002;5.468;2023-03-01T04:24:52;102935.84;;;-0.18;65.85
68075;BME280;54864;52.002;5.468;2023-03-01T04:25:55;102940.31;;;-0.14;65.92
68075;BME280;54864;52.002;5.468;2023-03-01T04:26:58;102942.59;;;-0.23;65.56
68075;BME280;54864;52.002;5.468;2023-03-01T04:27:59;102934.88;;;-0.21;65.68
68075;BME280;54864;52.002;5.468;2023-03-01T04:29:03;102939.41;;;-0.14;65.83
68075;BME280;54864;52.002;5.468;2023-03-01T04:30:07;102935.22;;;-0.11;65.39
68075;BME280;54864;52.002;5.468;2023-03-01T04:31:10;102937.63;;;-0.17;65.27
68075;BME280;54864;52.002;5.468;2023-03-01T04:32:16;102944.50;;;-0.17;65.23
68075;BME280;54864;52.002;5.468;2023-03-01T04:33:19;102935.50;;;-0.28;65.88
68075;BME280;54864;52.002;5.468;2023-03-01T04:34:22;102935.91;;;-0.16;65.83
68075;BME280;54864;52.002;5.468;2023-03-01T04:35:23;102933.50;;;-0.10;65.72
68075;BME280;54864;52.002;5.468;2023-03-01T04:36:26;102935.22;;;-0.11;65.50
68075;BME280;54864;52.002;5.468;2023-03-01T04:37:27;102936.00;;;-0.13;65.26
68075;BME280;54864;52.002;5.468;2023-03-01T04:38:32;102934.13;;;-0.17;65.58
68075;BME280;54864;52.002;5.468;2023-03-01T04:39:37;102927.25;;;-0.17;65.42
68075;BME280;54864;52.002;5.468;2023-03-01T04:40:45;102937.56;;;-0.18;65.60
68075;BME280;54864;52.002;5.468;2023-03-01T04:41:48;102930.66;;;-0.18;65.67
68075;BME280;54864;52.002;5.468;2023-03-01T04:42:49;102933.31;;;-0.16;65.93
68075;BME280;54864;52.002;5.468;2023-03-01T04:43:51;102926.66;;;-0.08;65.26
68075;BME280;54864;52.002;5.468;2023-03-01T04:44:52;102931.75;;;-0.11;65.47
68075;BME280;54864;52.002;5.468;2023-03-01T04:45:53;102930.13;;;-0.08;65.17
68075;BME280;54864;52.002;5.468;2023-03-01T04:46:54;102930.75;;;-0.15;65.96
68075;BME280;54864;52.002;5.468;2023-03-01T04:47:56;102924.84;;;-0.11;65.25
68075;BME280;54864;52.002;5.468;2023-03-01T04:48:58;102936.88;;;-0.13;65.96
68075;BME280;54864;52.002;5.468;2023-03-01T04:50:01;102920.44;;;-0.13;65.42
68075;BME280;54864;52.002;5.468;2023-03-01T04:51:03;102920.25;;;-0.19;65.61
68075;BME280;54864;52.002;5.468;2023-03-01T04:52:06;102920.50;;;-0.12;65.54
68075;BME280;54864;52.002;5.468;2023-03-01T04:53:06;102921.19;;;-0.17;65.63
68075;BME280;54864;52.002;5.468;2023-03-01T04:54:08;102929.00;;;-0.16;65.91
68075;BME280;54864;52.002;5.468;2023-03-01T04:55:10;102923.09;;;-0.12;65.11
68075;BME280;54864;52.002;5.468;2023-03-01T04:56:13;102926.22;;;-0.22;65.37
68075;BME280;54864;52.002;5.468;2023-03-01T04:57:14;102926.25;;;-0.20;65.52
68075;BME280;54864;52.002;5.468;2023-03-01T04:58:16;102925.53;;;-0.16;65.60
68075;BME280;54864;52.002;5.468;2023-03-01T04:59:16;102921.91;;;-0.21;65.61
68075;BME280;54864;52.002;5.468;2023-03-01T05:00:19;102924.56;;;-0.20;66.05
68075;BME280;54864;52.002;5.468;2023-03-01T05:01:20;102915.22;;;-0.15;65.47
68075;BME280;54864;52.002;5.468;2023-03-01T05:02:22;102919.53;;;-0.15;65.47
68075;BME280;54864;52.002;5.468;2023-03-01T05:03:23;102918.59;;;-0.17;65.20
68075;BME280;54864;52.002;5.468;2023-03-01T05:04:25;102914.38;;;-0.14;65.32
68075;BME280;54864;52.002;5.468;2023-03-01T05:05:29;102912.56;;;-0.16;65.25
68075;BME280;54864;52.002;5.468;2023-03-01T05:06:32;102913.22;;;-0.23;65.47
68075;BME280;54864;52.002;5.468;2023-03-01T05:07:33;102910.81;;;-0.17;65.07
68075;BME280;54864;52.002;5.468;2023-03-01T05:08:35;102905.56;;;-0.19;65.57
68075;BME280;54864;52.002;5.468;2023-03-01T05:09:37;102900.50;;;-0.16;65.39
68075;BME280;54864;52.002;5.468;2023-03-01T05:10:39;102900.44;;;-0.17;65.28
68075;BME280;54864;52.002;5.468;2023-03-01T05:11:39;102897.66;;;-0.23;65.54
68075;BME280;54864;52.002;5.468;2023-03-01T05:12:41;102893.59;;;-0.15;65.05
68075;BME280;54864;52.002;5.468;2023-03-01T05:13:42;102897.91;;;-0.16;65.12
68075;BME280;54864;52.002;5.468;2023-03-01T05:14:43;102889.25;;;-0.16;65.42
68075;BME280;54864;52.002;5.468;2023-03-01T05:15:44;102884.91;;;-0.17;65.21
68075;BME280;54864;52.002;5.468;2023-03-01T05:16:46;102889.00;;;-0.24;65.07
68075;BME280;54864;52.002;5.468;2023-03-01T05:17:47;102886.50;;;-0.21;65.42
68075;BME280;54864;52.002;5.468;2023-03-01T05:18:49;102880.41;;;-0.23;65.23
68075;BME280;54864;52.002;5.468;2023-03-01T05:19:51;102878.63;;;-0.24;65.50
68075;BME280;54864;52.002;5.468;2023-03-01T05:20:54;102882.25;;;-0.19;65.38
68075;BME280;54864;52.002;5.468;2023-03-01T05:21:56;102876.78;;;-0.28;65.45
68075;BME280;54864;52.002;5.468;2023-03-01T05:23:04;102881.72;;;-0.36;65.75
68075;BME280;54864;52.002;5.468;2023-03-01T05:24:07;102879.38;;;-0.28;65.79
68075;BME280;54864;52.002;5.468;2023-03-01T05:25:11;102879.22;;;-0.33;65.73
68075;BME280;54864;52.002;5.468;2023-03-01T05:26:14;102874.28;;;-0.25;65.42
68075;BME280;54864;52.002;5.468;2023-03-01T05:27:16;102880.94;;;-0.33;65.75
68075;BME280;54864;52.002;5.468;2023-03-01T05:28:19;102881.03;;;-0.30;65.57
68075;BME280;54864;52.002;5.468;2023-03-01T05:29:20;102885.66;;;-0.47;66.01
68075;BME280;54864;52.002;5.468;2023-03-01T05:30:27;102877.22;;;-0.41;66.26
68075;BME280;54864;52.002;5.468;2023-03-01T05:31:28;102875.19;;;-0.50;66.13
68075;BME280;54864;52.002;5.468;2023-03-01T05:32:33;102873.69;;;-0.43;65.97
68075;BME280;54864;52.002;5.468;2023-03-01T05:33:35;102867.91;;;-0.61;66.65